Time;durP1;ratioP1;P1;durP2;ratioP2;P2;SDS_P1;SDS_P2;PMS_P1;PMS_P2;Temp;Humidity;BMP_temperature;BMP_pressure;BME280_temperature;BME280_humidity;BME280_pressure;Samples;Min_cycle;Max_cycle;Signal;HPM_P1;HPM_P2
2021/06/24 00:01:12;;;;;;;7.50;2.80;;;;;;;20.81;79.83;101235.64;1664755;86;21104;-77
2021/06/24 00:03:40;;;;;;;7.42;3.58;;;;;;;20.76;80.03;101228.69;1658328;85;20927;-77
2021/06/24 00:06:07;;;;;;;6.90;3.62;;;;;;;20.74;80.16;101227.50;1657723;86;21640;-76
2021/06/24 00:08:35;;;;;;;7.80;3.62;;;;;;;20.71;80.44;101223.86;1658238;86;21086;-77
2021/06/24 00:11:02;;;;;;;8.48;4.00;;;;;;;20.69;80.68;101227.15;1657856;86;21612;-78
2021/06/24 00:13:30;;;;;;;6.87;3.40;;;;;;;20.67;81.14;101229.61;1657949;86;21641;-79
2021/06/24 00:15:56;;;;;;;7.75;3.42;;;;;;;20.64;81.50;101226.79;1657599;86;21027;-76
2021/06/24 00:18:24;;;;;;;9.68;3.67;;;;;;;20.62;82.04;101230.05;1657917;86;21054;-76
2021/06/24 00:20:53;;;;;;;5.80;3.62;;;;;;;20.62;82.42;101231.86;1658759;86;20971;-80
2021/06/24 00:23:19;;;;;;;6.65;3.95;;;;;;;20.61;82.70;101229.73;1658117;86;21522;-79
2021/06/24 00:25:46;;;;;;;9.53;3.65;;;;;;;20.62;82.72;101232.69;1657752;86;21107;-77
2021/06/24 00:28:16;;;;;;;10.10;3.62;;;;;;;20.63;82.74;101227.77;1658541;86;21001;-77
2021/06/24 00:30:47;;;;;;;6.75;4.10;;;;;;;20.63;82.91;101232.20;1659637;86;20991;-77
2021/06/24 00:33:14;;;;;;;8.48;3.67;;;;;;;20.62;82.84;101227.41;1659001;86;21020;-78
2021/06/24 00:35:42;;;;;;;10.43;3.60;;;;;;;20.62;82.86;101217.34;1657750;86;21015;-79
2021/06/24 00:38:08;;;;;;;8.50;3.85;;;;;;;20.63;82.97;101215.89;1657892;86;21113;-77
2021/06/24 00:40:36;;;;;;;8.33;4.08;;;;;;;20.63;83.12;101216.37;1657836;86;21046;-80
2021/06/24 00:43:05;;;;;;;9.98;4.90;;;;;;;20.61;83.52;101223.14;1627945;88;21014;-79
2021/06/24 00:45:31;;;;;;;4.28;3.45;;;;;;;20.59;84.02;101220.64;1622489;87;21557;-79
2021/06/24 00:47:58;;;;;;;6.60;3.47;;;;;;;20.58;84.51;101215.53;1660367;84;21106;-82
2021/06/24 00:50:26;;;;;;;9.30;4.65;;;;;;;20.57;85.22;101217.34;1660048;86;21151;-79
2021/06/24 00:52:53;;;;;;;7.35;3.27;;;;;;;20.58;86.01;101210.27;1659631;86;21016;-79
2021/06/24 00:55:39;;;;;;;6.30;3.80;;;;;;;20.59;86.47;101201.34;1665649;84;20953;-77
2021/06/24 00:57:48;;;;;;;8.58;5.12;;;;;;;20.59;86.69;101197.39;1644284;87;21009;-80
2021/06/24 01:00:18;;;;;;;9.10;5.10;;;;;;;20.60;86.72;101196.42;1678045;84;21081;-80
2021/06/24 01:02:45;;;;;;;8.25;4.78;;;;;;;20.59;86.94;101193.44;1625512;87;21156;-76
2021/06/24 01:05:12;;;;;;;13.65;4.60;;;;;;;20.57;87.11;101192.29;1677366;84;20961;-77
2021/06/24 01:07:39;;;;;;;6.70;3.80;;;;;;;20.56;87.37;101192.42;1656275;85;21055;-80
2021/06/24 01:10:25;;;;;;;7.53;3.92;;;;;;;20.58;87.48;101199.20;1646250;87;21072;-76
2021/06/24 01:12:52;;;;;;;10.70;5.28;;;;;;;20.61;87.71;101203.84;1677133;85;21642;-78
2021/06/24 01:15:20;;;;;;;9.63;4.50;;;;;;;20.62;87.78;101206.31;1626599;87;21173;-79
2021/06/24 01:17:47;;;;;;;6.80;4.45;;;;;;;20.63;87.74;101201.88;1676600;85;20977;-76
2021/06/24 01:20:17;;;;;;;13.85;4.62;;;;;;;20.64;87.79;101203.06;1646054;87;20976;-77
2021/06/24 01:22:44;;;;;;;5.87;4.00;;;;;;;20.64;87.62;101200.42;1676519;85;21025;-76
2021/06/24 01:25:13;;;;;;;8.45;4.05;;;;;;;20.65;87.56;101203.86;1676454;85;20994;-79
2021/06/24 01:27:39;;;;;;;8.90;3.27;;;;;;;20.68;87.33;101212.81;1645911;87;21987;-80
2021/06/24 01:30:07;;;;;;;6.60;3.65;;;;;;;20.71;87.09;101212.50;1676635;84;20925;-77
2021/06/24 01:32:35;;;;;;;13.22;4.72;;;;;;;20.75;86.98;101221.74;1655041;85;21071;-76
2021/06/24 01:35:04;;;;;;;8.43;4.78;;;;;;;20.76;86.96;101224.24;1645666;87;21566;-77
2021/06/24 01:37:32;;;;;;;9.10;4.33;;;;;;;20.76;87.04;101230.00;1676876;85;21586;-78
2021/06/24 01:39:59;;;;;;;6.78;4.37;;;;;;;20.72;87.26;101225.52;1645936;87;21773;-79
2021/06/24 01:42:54;;;;;;;12.25;4.25;;;;;;;20.70;87.26;101216.11;1676778;85;20973;-81
2021/06/24 01:45:21;;;;;;;9.35;3.90;;;;;;;20.69;87.38;101220.55;1625474;87;20928;-79
2021/06/24 01:47:48;;;;;;;11.57;3.92;;;;;;;20.69;87.54;101216.59;1677022;85;20989;-77
2021/06/24 01:50:15;;;;;;;11.73;4.60;;;;;;;20.70;87.74;101219.59;1646204;87;21526;-76
2021/06/24 01:52:44;;;;;;;9.55;4.67;;;;;;;20.72;87.97;101220.73;1677763;85;21107;-80
2021/06/24 01:55:13;;;;;;;6.37;3.95;;;;;;;20.72;88.05;101220.73;1647676;87;20980;-81
2021/06/24 01:57:42;;;;;;;8.70;4.47;;;;;;;20.70;88.20;101219.59;1685711;85;20989;-78
2021/06/24 02:00:13;;;;;;;7.67;3.95;;;;;;;20.68;88.82;101217.57;1688487;85;20969;-81
2021/06/24 02:02:42;;;;;;;9.03;4.40;;;;;;;20.59;89.64;101215.37;1648127;87;20909;-84
2021/06/24 02:05:11;;;;;;;7.78;3.98;;;;;;;20.53;90.52;101229.16;1686837;85;21397;-80
2021/06/24 02:07:40;;;;;;;11.73;5.00;;;;;;;20.51;90.39;101226.34;1648455;87;21011;-81
2021/06/24 02:10:23;;;;;;;7.67;5.03;;;;;;;20.52;90.10;101228.81;1686852;85;21039;-86
2021/06/24 02:12:55;;;;;;;7.17;4.03;;;;;;;20.54;89.89;101226.04;1646083;87;20979;-78
2021/06/24 02:15:22;;;;;;;6.55;3.98;;;;;;;20.55;89.68;101225.04;1686243;85;21072;-83
2021/06/24 02:17:50;;;;;;;8.00;4.20;;;;;;;20.60;89.53;101234.66;1686360;85;20962;-85
2021/06/24 02:20:19;;;;;;;10.55;4.83;;;;;;;20.64;89.64;101228.59;1625526;87;20997;-83
2021/06/24 02:22:48;;;;;;;14.30;4.80;;;;;;;20.67;89.70;101233.08;1674034;85;21084;-82
2021/06/24 02:25:16;;;;;;;11.35;5.28;;;;;;;20.70;89.75;101237.21;1647893;87;21000;-81
2021/06/24 02:28:02;;;;;;;9.20;4.45;;;;;;;20.71;89.81;101239.69;1687872;85;21004;-80
2021/06/24 02:30:37;;;;;;;10.13;4.58;;;;;;;20.74;90.14;101242.02;1647113;87;21128;-81
2021/06/24 02:33:08;;;;;;;9.28;4.50;;;;;;;20.74;90.40;101239.38;1688935;85;21602;-82
2021/06/24 02:35:37;;;;;;;11.88;4.40;;;;;;;20.76;90.76;101234.80;1648113;87;20909;-83
2021/06/24 02:38:07;;;;;;;6.25;4.25;;;;;;;20.78;91.18;101231.50;1687735;85;21044;-82
2021/06/24 02:40:39;;;;;;;10.70;5.17;;;;;;;20.76;91.55;101239.23;1688645;85;21036;-81
2021/06/24 02:43:07;;;;;;;10.32;5.85;;;;;;;20.75;91.92;101245.48;1688559;85;21104;-79
2021/06/24 02:45:41;;;;;;;10.68;5.00;;;;;;;20.72;93.17;101242.67;1688188;85;20922;-78
2021/06/24 02:48:10;;;;;;;13.38;5.42;;;;;;;20.68;94.79;101251.86;1687197;85;20974;-80
2021/06/24 02:50:38;;;;;;;7.30;5.60;;;;;;;20.63;95.65;101245.39;1648223;87;20949;-81
2021/06/24 02:53:07;;;;;;;9.70;5.85;;;;;;;20.59;96.89;101245.70;1687970;85;21021;-82
2021/06/24 02:55:34;;;;;;;12.58;4.90;;;;;;;20.58;97.88;101245.34;1685822;85;21105;-77
2021/06/24 02:58:01;;;;;;;12.43;5.20;;;;;;;20.55;98.51;101235.10;1648940;84;21039;-82
2021/06/24 03:00:30;;;;;;;8.70;5.20;;;;;;;20.56;100.00;101235.94;1673819;85;20989;-78
2021/06/24 03:03:08;;;;;;;13.40;4.85;;;;;;;20.56;100.00;101238.09;1646329;87;20892;-78
2021/06/24 03:05:36;;;;;;;13.53;5.53;;;;;;;20.59;100.00;101240.91;1674185;85;21002;-80
2021/06/24 03:08:04;;;;;;;14.78;5.58;;;;;;;20.61;100.00;101246.87;1676643;85;21205;-81
2021/06/24 03:10:46;;;;;;;13.10;5.78;;;;;;;20.61;100.00;101239.45;1644676;87;28129;-84
2021/06/24 03:13:13;;;;;;;12.20;5.25;;;;;;;20.58;100.00;101237.44;1676655;84;21612;-79
2021/06/24 03:15:40;;;;;;;13.58;6.50;;;;;;;20.58;100.00;101244.03;1676435;85;20977;-81
2021/06/24 03:18:07;;;;;;;12.53;5.80;;;;;;;20.59;100.00;101247.50;1676692;85;21020;-81
2021/06/24 03:20:35;;;;;;;11.57;5.30;;;;;;;20.61;100.00;101248.20;1646183;87;21148;-80
2021/06/24 03:23:02;;;;;;;8.48;5.22;;;;;;;20.62;100.00;101243.72;1655238;85;21048;-81
2021/06/24 03:25:30;;;;;;;9.28;5.28;;;;;;;20.62;100.00;101246.36;1676667;85;21083;-79
2021/06/24 03:27:59;;;;;;;13.38;5.30;;;;;;;20.62;100.00;101251.63;1676606;85;21568;-81
2021/06/24 03:30:36;;;;;;;11.05;5.20;;;;;;;20.64;100.00;101246.57;1644914;87;21019;-80
2021/06/24 03:33:04;;;;;;;18.60;6.45;;;;;;;20.67;100.00;101246.75;1676814;84;21135;-78
2021/06/24 03:35:31;;;;;;;10.38;5.87;;;;;;;20.72;100.00;101248.43;1645629;87;20999;-80
2021/06/24 03:37:58;;;;;;;19.48;6.97;;;;;;;20.74;100.00;101247.81;1676406;85;21545;-81
2021/06/24 03:40:26;;;;;;;14.35;5.70;;;;;;;20.76;100.00;101244.52;1645676;87;20996;-76
2021/06/24 03:42:54;;;;;;;12.03;5.92;;;;;;;20.77;100.00;101245.66;1676601;85;21009;-78
2021/06/24 03:45:24;;;;;;;9.15;5.92;;;;;;;20.82;100.00;101251.81;1645675;87;21165;-80
2021/06/24 03:47:50;;;;;;;10.15;5.65;;;;;;;20.85;100.00;101252.34;1676691;85;20914;-83
2021/06/24 03:50:18;;;;;;;16.27;6.45;;;;;;;20.88;100.00;101260.44;1676472;85;21509;-82
2021/06/24 03:52:47;;;;;;;17.27;6.40;;;;;;;20.90;100.00;101257.97;1646016;87;21083;-86
2021/06/24 03:55:17;;;;;;;11.83;6.53;;;;;;;20.94;100.00;101269.88;1676576;84;21043;-82
2021/06/24 03:57:44;;;;;;;11.22;6.65;;;;;;;20.97;100.00;101263.47;1638488;87;21154;-83
2021/06/24 04:00:22;;;;;;;13.60;5.90;;;;;;;21.02;100.00;101262.53;1669060;85;21795;-80
2021/06/24 04:02:48;;;;;;;15.32;6.22;;;;;;;21.06;100.00;101266.01;1669451;86;21528;-80
2021/06/24 04:05:22;;;;;;;16.70;6.58;;;;;;;21.12;100.00;101261.98;1637514;87;20998;-78
2021/06/24 04:07:50;;;;;;;21.40;7.58;;;;;;;21.18;100.00;101258.72;1669512;86;20979;-75
2021/06/24 04:10:17;;;;;;;14.25;6.80;;;;;;;21.24;100.00;101255.45;1669587;86;21415;-84
2021/06/24 04:12:46;;;;;;;16.25;6.47;;;;;;;21.29;100.00;101251.84;1639304;87;21042;-85
2021/06/24 04:15:30;;;;;;;13.38;6.37;;;;;;;21.34;100.00;101252.22;1668837;86;21049;-79
2021/06/24 04:17:58;;;;;;;10.93;5.70;;;;;;;21.38;100.00;101255.38;1639309;87;20976;-81
2021/06/24 04:20:26;;;;;;;17.20;7.78;;;;;;;21.43;100.00;101254.41;1669598;85;21089;-80
2021/06/24 04:22:53;;;;;;;13.22;6.35;;;;;;;21.46;100.00;101256.24;1638998;86;21151;-83
2021/06/24 04:25:24;;;;;;;11.90;6.33;;;;;;;21.51;100.00;101252.62;1668738;85;20983;-81
2021/06/24 04:27:52;;;;;;;14.98;6.90;;;;;;;21.56;100.00;101249.03;1639181;87;21102;-80
2021/06/24 04:30:20;;;;;;;16.60;6.45;;;;;;;21.63;100.00;101250.55;1634544;87;20994;-80
2021/06/24 04:32:49;;;;;;;14.98;6.75;;;;;;;21.69;100.00;101256.52;1669847;85;21105;-75
2021/06/24 04:35:21;;;;;;;14.07;6.22;;;;;;;21.77;100.00;101262.31;1669371;85;21129;-81
2021/06/24 04:37:48;;;;;;;10.48;6.50;;;;;;;21.82;100.00;101254.27;1669573;86;21726;-78
2021/06/24 04:40:15;;;;;;;15.75;6.67;;;;;;;21.88;100.00;101254.95;1642654;85;21034;-80
2021/06/24 04:42:50;;;;;;;14.28;6.45;;;;;;;21.95;100.00;101255.17;1669993;85;21305;-79
2021/06/24 04:45:18;;;;;;;10.68;6.28;;;;;;;22.00;100.00;101250.22;1669622;86;20962;-81
2021/06/24 04:47:53;;;;;;;11.60;6.35;;;;;;;22.06;100.00;101246.93;1668167;85;22005;-80
2021/06/24 04:50:21;;;;;;;15.63;7.00;;;;;;;22.14;100.00;101254.89;1669487;86;20967;-81
2021/06/24 04:52:52;;;;;;;11.28;6.33;;;;;;;22.20;100.00;101252.92;1639179;87;21018;-87
2021/06/24 04:55:20;;;;;;;17.30;6.20;;;;;;;22.26;100.00;101246.98;1634092;86;20980;-80
2021/06/24 04:57:48;;;;;;;16.20;6.67;;;;;;;22.33;100.00;101248.48;1663218;84;21086;-76
2021/06/24 05:00:34;;;;;;;18.85;6.72;;;;;;;22.41;100.00;101252.45;1662364;85;21069;-75
2021/06/24 05:03:04;;;;;;;19.15;6.45;;;;;;;22.48;100.00;101258.26;1634964;87;21036;-84
2021/06/24 05:05:33;;;;;;;17.05;6.53;;;;;;;22.56;100.00;101260.06;1628992;86;21026;-81
2021/06/24 05:08:07;;;;;;;16.32;6.10;;;;;;;22.63;100.00;101257.93;1661939;85;20927;-84
2021/06/24 05:10:35;;;;;;;21.48;7.25;;;;;;;22.72;100.00;101261.42;1661410;86;20971;-81
2021/06/24 05:13:01;;;;;;;16.70;6.80;;;;;;;22.81;100.00;101257.81;1662007;86;21151;-79
2021/06/24 05:15:28;;;;;;;18.37;6.80;;;;;;;22.91;100.00;101261.61;1662114;86;20961;-82
2021/06/24 05:17:55;;;;;;;19.50;5.97;;;;;;;22.96;100.00;101261.44;1662194;86;21011;-77
2021/06/24 05:20:22;;;;;;;13.18;5.65;;;;;;;23.03;100.00;101257.14;1662905;85;21577;-80
2021/06/24 05:22:49;;;;;;;20.02;5.90;;;;;;;23.11;99.78;101265.55;1643109;86;21470;-86
2021/06/24 05:25:16;;;;;;;19.77;6.28;;;;;;;23.16;99.39;101270.69;1662396;86;21114;-80
2021/06/24 05:27:42;;;;;;;11.08;6.00;;;;;;;23.23;98.70;101271.34;1662051;86;21589;-84
2021/06/24 05:30:10;;;;;;;12.73;6.50;;;;;;;23.28;98.45;101275.62;1662448;85;21102;-84
2021/06/24 05:32:37;;;;;;;22.70;7.70;;;;;;;23.39;98.68;101277.93;1662147;85;21097;-85
2021/06/24 05:35:05;;;;;;;12.33;6.00;;;;;;;23.49;98.27;101285.20;1661766;86;21584;-83
2021/06/24 05:37:31;;;;;;;14.93;6.67;;;;;;;23.56;97.38;101280.38;1662395;85;21053;-82
2021/06/24 05:39:58;;;;;;;13.25;6.60;;;;;;;23.63;97.31;101283.18;1662356;86;20983;-81
2021/06/24 05:42:25;;;;;;;17.85;7.53;;;;;;;23.68;96.91;101279.02;1662558;85;21042;-83
2021/06/24 05:44:52;;;;;;;17.45;6.03;;;;;;;23.72;96.58;101274.20;1662668;85;21057;-78
2021/06/24 05:47:20;;;;;;;13.18;6.83;;;;;;;23.77;96.86;101279.00;1634669;87;20951;-82
2021/06/24 05:49:47;;;;;;;14.85;6.28;;;;;;;23.82;96.51;101277.48;1630379;86;21117;-81
2021/06/24 05:52:14;;;;;;;16.77;6.72;;;;;;;23.89;95.66;101271.82;1664782;86;20943;-78
2021/06/24 05:54:41;;;;;;;27.80;6.65;;;;;;;23.99;94.86;101274.26;1664728;84;21107;-88
2021/06/24 05:57:08;;;;;;;19.15;6.60;;;;;;;24.06;94.10;101269.39;1669135;84;21484;-81
2021/06/24 05:59:35;;;;;;;20.35;6.75;;;;;;;24.12;93.80;101263.95;1646151;85;21171;-82
2021/06/24 06:02:02;;;;;;;20.50;6.62;;;;;;;24.16;93.94;101263.41;1676911;84;21138;-84
2021/06/24 06:04:29;;;;;;;17.05;6.25;;;;;;;24.22;93.30;101260.05;1644898;86;20992;-79
2021/06/24 06:06:58;;;;;;;12.03;6.12;;;;;;;24.29;92.50;101265.48;1676893;84;21028;-82
2021/06/24 06:09:26;;;;;;;20.52;6.40;;;;;;;24.35;92.30;101269.25;1646415;86;20975;-83
2021/06/24 06:11:54;;;;;;;12.28;6.75;;;;;;;24.41;91.66;101266.73;1677571;84;21081;-81
2021/06/24 06:14:24;;;;;;;15.90;6.58;;;;;;;24.46;91.25;101275.50;1655304;85;21013;-83
2021/06/24 06:16:53;;;;;;;13.75;6.70;;;;;;;24.51;91.01;101275.78;1668377;83;21052;-88
2021/06/24 06:19:20;;;;;;;15.85;6.87;;;;;;;24.57;90.08;101275.10;1715345;81;21591;-84
2021/06/24 06:21:47;;;;;;;15.00;7.15;;;;;;;24.58;90.07;101286.85;1754194;81;20979;-87
2021/06/24 06:24:14;;;;;;;16.57;7.12;;;;;;;24.56;89.49;101278.25;1746706;80;21039;-82
2021/06/24 06:26:43;;;;;;;14.23;6.33;;;;;;;24.56;89.93;101273.44;1683028;83;21133;-79
2021/06/24 06:29:10;;;;;;;18.85;6.50;;;;;;;24.54;89.32;101279.41;1702962;84;21011;-80
2021/06/24 06:31:39;;;;;;;15.15;5.72;;;;;;;24.52;89.34;101273.46;1681500;85;21047;-86
2021/06/24 06:34:07;;;;;;;15.48;6.85;;;;;;;24.53;88.13;101278.61;1702569;84;21062;-81
2021/06/24 06:36:34;;;;;;;14.75;6.00;;;;;;;24.57;88.71;101279.08;1702780;84;21546;-83
2021/06/24 06:39:02;;;;;;;12.65;6.75;;;;;;;24.61;87.57;101275.05;1670655;85;21317;-83
2021/06/24 06:41:33;;;;;;;14.18;7.00;;;;;;;24.66;87.86;101278.84;1716449;83;20932;-79
2021/06/24 06:44:02;;;;;;;22.73;7.22;;;;;;;24.74;87.58;101277.94;1703667;83;21046;-82
2021/06/24 06:46:29;;;;;;;19.73;6.92;;;;;;;24.83;87.37;101269.42;1708386;83;21145;-76
2021/06/24 06:48:59;;;;;;;22.35;7.62;;;;;;;24.92;87.62;101271.03;1687196;83;21519;-79
2021/06/24 06:51:26;;;;;;;22.10;8.00;;;;;;;25.00;87.58;101265.63;1646120;86;21865;-88
2021/06/24 06:53:53;;;;;;;13.98;7.92;;;;;;;25.09;87.32;101267.20;1687247;83;21083;-80
2021/06/24 06:56:20;;;;;;;21.27;8.20;;;;;;;25.17;86.90;101270.63;1704016;83;21012;-77
2021/06/24 06:58:49;;;;;;;25.15;7.58;;;;;;;25.24;86.37;101270.70;1710152;83;20991;-78
2021/06/24 07:01:18;;;;;;;22.42;7.45;;;;;;;25.29;86.19;101278.96;1702510;83;21100;-81
2021/06/24 07:03:45;;;;;;;22.40;6.90;;;;;;;25.32;85.35;101281.75;1690662;83;21300;-83
2021/06/24 07:06:14;;;;;;;17.60;7.20;;;;;;;25.32;85.39;101283.91;1686732;83;21749;-87
2021/06/24 07:08:43;;;;;;;19.42;7.17;;;;;;;25.33;85.56;101276.27;1703071;83;21124;-82
2021/06/24 07:11:11;;;;;;;21.55;7.65;;;;;;;25.39;85.95;101277.37;1698024;81;20931;-81
2021/06/24 07:13:39;;;;;;;18.65;6.90;;;;;;;25.44;86.49;101279.80;1744018;82;21004;-82
2021/06/24 07:16:06;;;;;;;14.18;6.40;;;;;;;25.52;86.13;101280.25;1753568;81;21154;-83
2021/06/24 07:18:33;;;;;;;18.42;7.22;;;;;;;25.58;85.57;101280.34;1753615;81;20982;-80
2021/06/24 07:21:00;;;;;;;23.70;7.70;;;;;;;25.65;86.10;101275.12;1743571;82;21041;-82
2021/06/24 07:23:27;;;;;;;21.65;6.55;;;;;;;25.77;86.83;101277.63;1704740;81;21079;-79
2021/06/24 07:25:55;;;;;;;11.53;7.22;;;;;;;25.90;86.87;101276.96;1707981;83;20967;-81
2021/06/24 07:28:22;;;;;;;15.68;7.70;;;;;;;25.99;85.39;101274.52;1715789;83;21115;-84
2021/06/24 07:30:50;;;;;;;21.05;7.60;;;;;;;26.03;85.49;101275.30;1715764;83;20955;-81
2021/06/24 07:33:17;;;;;;;17.62;7.20;;;;;;;26.09;85.19;101276.38;1697071;83;21055;-85
2021/06/24 07:35:44;;;;;;;23.35;7.62;;;;;;;26.13;84.77;101271.80;1686958;85;21067;-84
2021/06/24 07:38:13;;;;;;;18.98;6.75;;;;;;;26.17;85.26;101266.47;1690055;83;21154;-85
2021/06/24 07:40:42;;;;;;;25.92;7.97;;;;;;;26.25;85.46;101270.36;1695441;83;21123;-80
2021/06/24 07:43:10;;;;;;;18.42;7.78;;;;;;;26.35;85.04;101275.38;1687182;85;20995;-86
2021/06/24 07:45:37;;;;;;;19.82;7.28;;;;;;;26.43;84.27;101267.75;1687110;85;20991;-80
2021/06/24 07:48:06;;;;;;;18.82;7.90;;;;;;;26.49;84.88;101265.66;1687437;83;20995;-81
2021/06/24 07:50:34;;;;;;;15.88;7.03;;;;;;;26.59;84.38;101265.67;1715652;83;21069;-81
2021/06/24 07:53:01;;;;;;;23.22;8.73;;;;;;;26.67;84.96;101260.23;1716281;83;21892;-78
2021/06/24 07:55:34;;;;;;;18.42;7.95;;;;;;;26.78;84.58;101254.37;1716068;83;20896;-78
2021/06/24 07:58:03;;;;;;;21.30;7.85;;;;;;;26.87;83.79;101251.61;1714408;83;20960;-76
2021/06/24 08:00:32;;;;;;;15.95;7.60;;;;;;;26.94;83.66;101251.13;1713657;83;21055;-82
2021/06/24 08:03:03;;;;;;;22.77;7.37;;;;;;;27.00;82.06;101247.69;1713794;83;21502;-84
2021/06/24 08:05:30;;;;;;;18.77;7.42;;;;;;;27.06;82.18;101247.73;1713141;83;21152;-85
2021/06/24 08:07:58;;;;;;;28.42;7.90;;;;;;;27.16;82.29;101243.41;1713319;83;20974;-82
2021/06/24 08:10:24;;;;;;;22.10;7.40;;;;;;;27.26;81.70;101251.38;1713118;83;21031;-79
2021/06/24 08:12:52;;;;;;;19.05;7.65;;;;;;;27.36;80.86;101248.35;1713435;83;20987;-91
2021/06/24 08:15:21;;;;;;;28.55;8.10;;;;;;;27.43;80.13;101249.72;1713172;83;21097;-83
2021/06/24 08:17:49;;;;;;;20.52;7.83;;;;;;;27.52;79.60;101249.91;1713558;83;22187;-82
2021/06/24 08:20:17;;;;;;;19.70;7.10;;;;;;;27.64;79.07;101249.65;1713131;83;20944;-80
2021/06/24 08:22:44;;;;;;;21.73;7.67;;;;;;;27.70;78.55;101246.19;1713660;83;20967;-82
2021/06/24 08:25:15;;;;;;;27.45;8.65;;;;;;;27.78;78.01;101248.19;1713266;83;21050;-77
2021/06/24 08:27:48;;;;;;;36.23;9.20;;;;;;;27.89;78.13;101249.98;1713871;83;20964;-81
2021/06/24 08:30:16;;;;;;;22.52;9.33;;;;;;;27.97;76.75;101246.61;1713019;83;21789;-83
2021/06/24 08:32:44;;;;;;;22.93;8.75;;;;;;;28.00;78.90;101247.55;1713950;83;20919;-79
2021/06/24 08:35:16;;;;;;;27.77;9.15;;;;;;;27.98;80.27;101242.10;1710987;82;21030;-84
2021/06/24 08:37:47;;;;;;;20.05;8.00;;;;;;;28.03;81.61;101241.80;1692768;84;21070;-80
2021/06/24 08:40:15;;;;;;;;;;;;;;;28.10;82.35;101240.02;1688374;84;21033;-81
2021/06/24 08:42:44;;;;;;;47.55;10.65;;;;;;;28.18;87.36;101229.14;1685708;84;21140;-85
2021/06/24 08:45:11;;;;;;;52.33;11.70;;;;;;;28.23;84.72;101232.04;1685141;84;20946;-83
2021/06/24 08:47:48;;;;;;;39.98;10.68;;;;;;;28.24;82.55;101230.20;1685416;84;20951;-79
2021/06/24 08:50:13;;;;;;;24.43;8.40;;;;;;;28.26;81.44;101231.63;1684761;83;21087;-84
2021/06/24 08:52:47;;;;;;;16.75;7.75;;;;;;;28.25;81.22;101229.16;1684897;85;21073;-83
2021/06/24 08:55:15;;;;;;;16.77;7.55;;;;;;;28.21;80.37;101238.08;1684782;84;21109;-84
2021/06/24 08:57:42;;;;;;;23.38;7.65;;;;;;;28.16;81.60;101239.71;1690534;84;21054;-84
2021/06/24 09:00:11;;;;;;;15.05;7.33;;;;;;;28.14;80.32;101240.44;1733855;82;20967;-84
2021/06/24 09:02:48;;;;;;;17.10;7.80;;;;;;;28.13;81.23;101234.78;1734028;82;21034;-84
2021/06/24 09:05:15;;;;;;;19.52;7.55;;;;;;;28.12;81.38;101236.63;1733790;82;20946;-81
2021/06/24 09:07:55;;;;;;;25.88;7.40;;;;;;;28.18;81.91;101242.48;1733856;82;21104;-78
2021/06/24 09:10:23;;;;;;;22.07;8.15;;;;;;;28.29;80.83;101240.57;1733617;82;20962;-84
2021/06/24 09:12:59;;;;;;;21.48;8.50;;;;;;;28.38;80.52;101231.84;1733865;82;20939;-83
2021/06/24 09:15:37;;;;;;;16.57;7.92;;;;;;;28.52;81.25;101236.69;1734091;82;21516;-79
2021/06/24 09:18:24;;;;;;;19.50;8.00;;;;;;;28.67;80.35;101236.83;1733643;82;21054;-86
2021/06/24 09:20:53;;;;;;;22.32;7.33;;;;;;;28.82;78.79;101230.76;1733860;82;21324;-84
2021/06/24 09:23:24;;;;;;;24.87;7.83;;;;;;;28.92;78.42;101231.67;1718889;82;20911;-84
2021/06/24 09:26:12;;;;;;;21.23;7.97;;;;;;;29.01;77.48;101233.09;1724650;82;21077;-81
2021/06/24 09:28:50;;;;;;;20.68;8.28;;;;;;;29.08;76.29;101231.75;1699307;84;20981;-77
2021/06/24 09:31:30;;;;;;;21.07;8.18;;;;;;;29.13;74.69;101222.61;1703395;84;21029;-80
2021/06/24 09:34:05;;;;;;;19.80;7.83;;;;;;;29.19;75.18;101223.11;1703999;84;22373;-82
2021/06/24 09:36:38;;;;;;;23.20;7.37;;;;;;;29.26;72.55;101216.73;1715664;82;21006;-81
2021/06/24 09:39:34;;;;;;;23.65;7.87;;;;;;;29.31;73.43;101216.11;1713464;82;21009;-80
2021/06/24 09:42:12;;;;;;;19.48;7.20;;;;;;;29.43;73.38;101221.62;1718379;82;21093;-83
2021/06/24 09:44:46;;;;;;;25.52;8.35;;;;;;;29.50;72.29;101215.73;1718914;82;21597;-82
2021/06/24 09:47:25;;;;;;;22.93;8.88;;;;;;;29.61;71.82;101223.12;1703435;84;21127;-82
2021/06/24 09:50:03;;;;;;;24.47;7.80;;;;;;;29.69;72.25;101222.34;1699310;84;21567;-82
2021/06/24 09:52:30;;;;;;;18.07;7.00;;;;;;;29.73;70.29;101218.73;1703276;82;22341;-86
2021/06/24 09:55:13;;;;;;;21.33;7.50;;;;;;;29.74;69.56;101218.51;1704379;84;20990;-83
2021/06/24 09:57:43;;;;;;;19.17;6.92;;;;;;;29.71;68.75;101208.74;1692767;83;36596;-84
2021/06/24 10:00:23;;;;;;;26.30;7.83;;;;;;;29.75;70.02;101214.80;1687030;83;21120;-85
2021/06/24 10:03:14;;;;;;;21.68;8.18;;;;;;;29.90;69.98;101221.23;1687190;84;20968;-81
2021/06/24 10:05:40;;;;;;;24.57;7.85;;;;;;;30.10;67.72;101212.58;1652471;85;20951;-82
2021/06/24 10:08:07;;;;;;;16.62;7.72;;;;;;;30.24;68.11;101214.66;1686974;85;21035;-78
2021/06/24 10:10:35;;;;;;;25.55;7.90;;;;;;;30.46;67.31;101215.15;1681890;83;21068;-83
2021/06/24 10:13:10;;;;;;;22.58;7.67;;;;;;;30.51;66.47;101207.27;1651660;85;21128;-89
2021/06/24 10:15:37;;;;;;;25.43;7.85;;;;;;;30.51;64.29;101209.94;1676805;85;21598;-85
2021/06/24 10:18:05;;;;;;;21.02;7.62;;;;;;;30.53;62.13;101205.20;1677027;85;21065;-85
2021/06/24 10:20:32;;;;;;;30.70;8.43;;;;;;;30.50;64.12;101208.33;1655900;85;21030;-83
2021/06/24 10:23:11;;;;;;;24.07;7.50;;;;;;;30.53;64.88;101208.71;1677139;85;20969;-86
2021/06/24 10:25:38;;;;;;;32.90;8.13;;;;;;;30.56;65.36;101205.59;1677632;85;21580;-82
2021/06/24 10:28:05;;;;;;;25.85;8.03;;;;;;;30.66;66.03;101202.42;1656050;85;21013;-86
2021/06/24 10:30:39;;;;;;;23.75;7.33;;;;;;;30.70;65.21;101201.74;1676965;85;21832;-81
2021/06/24 10:33:15;;;;;;;24.65;7.28;;;;;;;30.71;62.06;101199.89;1676637;85;21082;-84
2021/06/24 10:35:51;;;;;;;29.92;7.50;;;;;;;30.74;62.63;101198.94;1677112;85;21036;-83
2021/06/24 10:38:19;;;;;;;27.15;7.55;;;;;;;30.79;61.85;101197.73;1676581;85;21838;-78
2021/06/24 10:40:59;;;;;;;24.82;8.15;;;;;;;30.76;61.73;101194.16;1675927;85;21611;-83
2021/06/24 10:43:47;;;;;;;27.90;7.35;;;;;;;30.74;60.69;101197.59;1676293;85;21000;-79
2021/06/24 10:46:17;;;;;;;23.73;7.70;;;;;;;30.67;60.91;101191.98;1676738;85;20989;-80
2021/06/24 10:48:44;;;;;;;24.47;6.60;;;;;;;30.69;61.04;101189.41;1676830;85;21057;-77
2021/06/24 10:51:12;;;;;;;23.40;7.12;;;;;;;30.79;59.74;101188.91;1677221;85;21100;-84
2021/06/24 10:53:53;;;;;;;23.07;8.25;;;;;;;30.85;60.51;101186.67;1676885;85;21088;-84
2021/06/24 10:56:33;;;;;;;19.57;7.00;;;;;;;30.82;60.12;101183.10;1677203;85;20989;-81
2021/06/24 10:59:05;;;;;;;27.40;7.60;;;;;;;30.83;61.08;101179.36;1687173;84;21607;-80
2021/06/24 11:01:46;;;;;;;21.48;6.55;;;;;;;30.90;60.15;101186.81;1691556;84;20976;-78
2021/06/24 11:04:33;;;;;;;19.35;6.72;;;;;;;30.89;58.97;101181.98;1695107;84;21762;-81
2021/06/24 11:07:19;;;;;;;21.75;7.37;;;;;;;30.89;60.00;101181.15;1694612;84;21003;-86
2021/06/24 11:10:20;;;;;;;22.30;8.15;;;;;;;30.93;61.40;101182.36;1702080;82;21000;-85
2021/06/24 11:12:58;;;;;;;18.17;6.67;;;;;;;31.05;60.41;101174.45;1731609;82;21080;-83
2021/06/24 11:15:48;;;;;;;18.52;6.72;;;;;;;31.08;59.08;101178.02;1731075;82;21035;-81
2021/06/24 11:18:37;;;;;;;19.65;6.85;;;;;;;31.12;59.59;101167.12;1724487;82;21866;-81
2021/06/24 11:21:16;;;;;;;23.40;6.65;;;;;;;31.20;59.05;101169.01;1731162;82;21085;-76
2021/06/24 11:23:55;;;;;;;26.15;7.45;;;;;;;31.36;59.45;101165.72;1727417;82;21468;-81
2021/06/24 11:26:29;;;;;;;22.90;6.50;;;;;;;31.61;59.05;101168.83;1723611;82;21031;-83
2021/06/24 11:29:42;;;;;;;24.65;7.05;;;;;;;31.96;57.67;101162.55;1732351;82;21075;-82
2021/06/24 11:32:22;;;;;;;19.02;6.12;;;;;;;32.20;55.14;101159.41;1731343;82;21136;-80